Impacts METAR Board INFO
IDs:

KBWI - Baltimore-Washington, MD, US

Updated at: 0626 UTC 14 Dec 2017
Potential Impact None Slight Moderate High
Time13/18Z 13/19Z 13/20Z 13/21Z 13/22Z 13/23Z 14/00Z 14/01Z 14/02Z 14/03Z 14/04Z 14/05Z 14/06Z
VIS10 10 10 10 10 10 10 4 4 10 10 10 10
CIG-- -- -- -- 250 180 160 42 27 70 70 90 110
CoverSCTFEWFEWSCTBKNBKNOVCOVCOVCOVCOVCOVCOVC
FltCatVFRVFRVFRVFRVFRVFRVFRMVFRMVFRVFRVFRVFRVFR
WX---------------SN-SN BR--------
WDir2802702802602601401302000011000
WSpd16 17 12 9 4 4 3 11 0 0 6 0 0
WGst-- 24 -- -- -- -- -- 16 -- -- -- -- --
Raw hourly METARs
KBWI 131754Z 28016KT 10SM FEW055 FEW180 SCT250 M01/M16 A2977 RMK AO2 SLP083 T10111161 11011 21067 58013
KBWI 131854Z 27017G24KT 10SM FEW180 FEW250 M01/M16 A2976 RMK AO2 SLP079 T10061156
KBWI 131954Z 28012KT 10SM FEW180 FEW250 00/M14 A2975 RMK AO2 SLP077 T00001144
KBWI 132054Z 26009KT 10SM FEW130 FEW180 SCT250 M01/M14 A2975 RMK AO2 SLP077 T10061139 56006
KBWI 132154Z 26004KT 10SM SCT120 SCT180 BKN250 M01/M13 A2975 RMK AO2 SLP074 ACSL S-W T10111133
KBWI 132254Z 14004KT 10SM FEW055 SCT120 BKN180 BKN250 M02/M13 A2975 RMK AO2 SLP075 T10171128
KBWI 132354Z 13003KT 10SM FEW050 SCT100 OVC160 M01/M13 A2972 RMK AO2 SLP065 VIRGA S-SW T10111128 10000 21028 58012
KBWI 140054Z 20011G16KT 4SM -SN BKN042 OVC065 M01/M10 A2970 RMK AO2 SNB54 SLP058 P0000 T10061100
KBWI 140154Z COR 00000KT 4SM -SN BR OVC027 M02/M04 A2968 RMK AO2 SLP051 VIS NW-NE 1 3/4 P0001 T10221039
KBWI 140254Z 00000KT 10SM FEW047 OVC070 M01/M06 A2966 RMK AO2 SNE24 SLP046 P0000 60001 T10111061 56019
KBWI 140354Z 11006KT 10SM SCT050 BKN070 OVC095 M01/M06 A2963 RMK AO2 SLP033 VIRGA OHD-ALQDS T10111061
KBWI 140454Z 00000KT 10SM SCT050 OVC090 M01/M06 A2959 RMK AO2 SLP020 VIRGA W T10111056 400001067
KBWI 140554Z 00000KT 10SM FEW050 SCT075 OVC110 M01/M06 A2956 RMK AO2 SLP010 60001 T10061061 11006 21022 56036